sensor_id;sensor_type;location;lat;lon;timestamp;pressure;altitude;pressure_sealevel;temperature;humidity
61018;BME280;48171;51.550;5.434;2022-11-06T00:02:23;101484.84;;;8.91;96.40
61018;BME280;48171;51.550;5.434;2022-11-06T00:04:48;101489.19;;;8.87;96.38
61018;BME280;48171;51.550;5.434;2022-11-06T00:07:14;101490.94;;;8.85;96.32
61018;BME280;48171;51.550;5.434;2022-11-06T00:09:39;101493.56;;;8.85;96.20
61018;BME280;48171;51.550;5.434;2022-11-06T00:12:04;101497.94;;;8.83;96.29
61018;BME280;48171;51.550;5.434;2022-11-06T00:14:30;101489.97;;;8.80;96.41
61018;BME280;48171;51.550;5.434;2022-11-06T00:16:55;101484.72;;;8.80;96.23
61018;BME280;48171;51.550;5.434;2022-11-06T00:19:20;101485.59;;;8.79;96.50
61018;BME280;48171;51.550;5.434;2022-11-06T00:21:45;101478.50;;;8.76;96.42
61018;BME280;48171;51.550;5.434;2022-11-06T00:24:12;101474.09;;;8.72;96.28
61018;BME280;48171;51.550;5.434;2022-11-06T00:26:38;101478.44;;;8.67;96.48
61018;BME280;48171;51.550;5.434;2022-11-06T00:29:04;101478.41;;;8.66;96.71
61018;BME280;48171;51.550;5.434;2022-11-06T00:31:35;101474.94;;;8.67;96.77
61018;BME280;48171;51.550;5.434;2022-11-06T00:34:02;101474.91;;;8.68;96.66
61018;BME280;48171;51.550;5.434;2022-11-06T00:36:29;101475.81;;;8.69;96.73
61018;BME280;48171;51.550;5.434;2022-11-06T00:38:55;101460.88;;;8.68;96.83
61018;BME280;48171;51.550;5.434;2022-11-06T00:41:21;101452.06;;;8.66;96.44
61018;BME280;48171;51.550;5.434;2022-11-06T00:43:53;101452.09;;;8.67;96.79
61018;BME280;48171;51.550;5.434;2022-11-06T00:46:19;101454.69;;;8.66;96.78
61018;BME280;48171;51.550;5.434;2022-11-06T00:48:45;101453.81;;;8.65;96.67
61018;BME280;48171;51.550;5.434;2022-11-06T00:51:16;101459.97;;;8.63;96.84
61018;BME280;48171;51.550;5.434;2022-11-06T00:53:42;101466.06;;;8.60;97.12
61018;BME280;48171;51.550;5.434;2022-11-06T00:56:17;101465.16;;;8.58;97.49
61018;BME280;48171;51.550;5.434;2022-11-06T00:58:43;101467.78;;;8.58;96.96
61018;BME280;48171;51.550;5.434;2022-11-06T01:01:11;101466.91;;;8.57;97.12
61018;BME280;48171;51.550;5.434;2022-11-06T01:03:38;101464.25;;;8.54;97.08
61018;BME280;48171;51.550;5.434;2022-11-06T01:06:09;101473.84;;;8.52;97.04
61018;BME280;48171;51.550;5.434;2022-11-06T01:08:34;101466.88;;;8.53;97.07
61018;BME280;48171;51.550;5.434;2022-11-06T01:11:15;101464.22;;;8.51;96.93
61018;BME280;48171;51.550;5.434;2022-11-06T01:13:41;101463.31;;;8.49;97.05
61018;BME280;48171;51.550;5.434;2022-11-06T01:16:09;101461.53;;;8.48;97.08
61018;BME280;48171;51.550;5.434;2022-11-06T01:18:37;101461.50;;;8.45;97.12
61018;BME280;48171;51.550;5.434;2022-11-06T01:21:05;101463.25;;;8.45;97.25
61018;BME280;48171;51.550;5.434;2022-11-06T01:23:31;101453.56;;;8.44;97.21
61018;BME280;48171;51.550;5.434;2022-11-06T01:25:58;101457.97;;;8.46;97.34
61018;BME280;48171;51.550;5.434;2022-11-06T01:28:24;101448.38;;;8.47;97.66
61018;BME280;48171;51.550;5.434;2022-11-06T01:30:50;101443.94;;;8.46;97.86
61018;BME280;48171;51.550;5.434;2022-11-06T01:33:15;101439.56;;;8.46;98.12
61018;BME280;48171;51.550;5.434;2022-11-06T01:35:48;101442.22;;;8.48;98.24
61018;BME280;48171;51.550;5.434;2022-11-06T01:38:15;101435.19;;;8.48;98.07
61018;BME280;48171;51.550;5.434;2022-11-06T01:40:42;101425.56;;;8.50;98.29
61018;BME280;48171;51.550;5.434;2022-11-06T01:43:13;101427.38;;;8.54;98.30
61018;BME280;48171;51.550;5.434;2022-11-06T01:45:40;101415.97;;;8.55;98.53
61018;BME280;48171;51.550;5.434;2022-11-06T01:48:07;101418.66;;;8.58;98.03
61018;BME280;48171;51.550;5.434;2022-11-06T01:50:32;101414.28;;;8.60;98.21
61018;BME280;48171;51.550;5.434;2022-11-06T01:52:58;101424.88;;;8.67;97.97
61018;BME280;48171;51.550;5.434;2022-11-06T01:55:34;101414.38;;;8.71;97.83
61018;BME280;48171;51.550;5.434;2022-11-06T01:58:04;101419.63;;;8.71;97.69
61018;BME280;48171;51.550;5.434;2022-11-06T02:00:29;101414.41;;;8.73;98.05
61018;BME280;48171;51.550;5.434;2022-11-06T02:02:57;101420.56;;;8.75;97.63
61018;BME280;48171;51.550;5.434;2022-11-06T02:05:22;101412.66;;;8.78;97.64
61018;BME280;48171;51.550;5.434;2022-11-06T02:07:47;101417.97;;;8.81;97.42
61018;BME280;48171;51.550;5.434;2022-11-06T02:10:13;101409.22;;;8.84;97.52
61018;BME280;48171;51.550;5.434;2022-11-06T02:13:07;101410.13;;;8.86;97.58
61018;BME280;48171;51.550;5.434;2022-11-06T02:15:42;101405.75;;;8.88;97.18
61018;BME280;48171;51.550;5.434;2022-11-06T02:21:48;101401.41;;;8.96;96.95
61018;BME280;48171;51.550;5.434;2022-11-06T02:24:27;101397.03;;;8.95;96.91
61018;BME280;48171;51.550;5.434;2022-11-06T02:27:12;101391.75;;;8.96;96.60
61018;BME280;48171;51.550;5.434;2022-11-06T02:29:50;101390.00;;;8.95;96.50
61018;BME280;48171;51.550;5.434;2022-11-06T02:32:25;101390.88;;;8.96;96.43
61018;BME280;48171;51.550;5.434;2022-11-06T02:34:53;101395.25;;;8.94;96.50
61018;BME280;48171;51.550;5.434;2022-11-06T02:37:25;101385.56;;;8.91;96.29
61018;BME280;48171;51.550;5.434;2022-11-06T02:39:55;101387.31;;;8.89;96.22
61018;BME280;48171;51.550;5.434;2022-11-06T02:42:22;101373.25;;;8.87;96.26
61018;BME280;48171;51.550;5.434;2022-11-06T02:44:52;101375.84;;;8.84;96.33
61018;BME280;48171;51.550;5.434;2022-11-06T02:47:21;101367.03;;;8.82;96.57
61018;BME280;48171;51.550;5.434;2022-11-06T02:49:54;101374.00;;;8.75;96.66
61018;BME280;48171;51.550;5.434;2022-11-06T02:52:26;101381.09;;;8.81;96.80
61018;BME280;48171;51.550;5.434;2022-11-06T02:54:57;101372.31;;;8.82;96.91
61018;BME280;48171;51.550;5.434;2022-11-06T02:57:25;101367.91;;;8.79;96.87
61018;BME280;48171;51.550;5.434;2022-11-06T03:00:03;101379.31;;;8.80;97.12
61018;BME280;48171;51.550;5.434;2022-11-06T03:02:53;101371.38;;;8.78;96.99
61018;BME280;48171;51.550;5.434;2022-11-06T03:05:28;101381.03;;;8.76;97.12
61018;BME280;48171;51.550;5.434;2022-11-06T03:10:35;101390.69;;;8.76;97.45
61018;BME280;48171;51.550;5.434;2022-11-06T03:13:18;101395.97;;;8.76;97.70
61018;BME280;48171;51.550;5.434;2022-11-06T03:16:02;101405.66;;;8.80;97.81
61018;BME280;48171;51.550;5.434;2022-11-06T03:18:35;101386.38;;;8.81;97.66
61018;BME280;48171;51.550;5.434;2022-11-06T03:21:18;101376.72;;;8.85;97.77
61018;BME280;48171;51.550;5.434;2022-11-06T03:24:13;101375.88;;;8.87;97.25
61018;BME280;48171;51.550;5.434;2022-11-06T03:26:44;101368.78;;;8.80;97.44
61018;BME280;48171;51.550;5.434;2022-11-06T03:32:01;101355.59;;;8.77;97.13
61018;BME280;48171;51.550;5.434;2022-11-06T03:34:36;101359.94;;;8.72;97.54
61018;BME280;48171;51.550;5.434;2022-11-06T03:37:12;101347.63;;;8.71;97.74
61018;BME280;48171;51.550;5.434;2022-11-06T03:39:43;101341.47;;;8.69;97.69
61018;BME280;48171;51.550;5.434;2022-11-06T03:42:13;101339.69;;;8.68;97.85
61018;BME280;48171;51.550;5.434;2022-11-06T03:44:47;101341.44;;;8.66;98.02
61018;BME280;48171;51.550;5.434;2022-11-06T03:49:46;101334.41;;;8.66;98.65
61018;BME280;48171;51.550;5.434;2022-11-06T03:52:35;101322.16;;;8.70;98.79
61018;BME280;48171;51.550;5.434;2022-11-06T03:55:06;101323.03;;;8.70;98.71
61018;BME280;48171;51.550;5.434;2022-11-06T03:58:00;101315.16;;;8.76;99.03
61018;BME280;48171;51.550;5.434;2022-11-06T04:00:27;101315.16;;;8.76;99.09
61018;BME280;48171;51.550;5.434;2022-11-06T04:02:57;101311.69;;;8.79;99.12
61018;BME280;48171;51.550;5.434;2022-11-06T04:05:52;101307.31;;;8.81;98.93
61018;BME280;48171;51.550;5.434;2022-11-06T04:08:20;101310.81;;;8.80;98.59
61018;BME280;48171;51.550;5.434;2022-11-06T04:11:09;101303.78;;;8.77;98.55
61018;BME280;48171;51.550;5.434;2022-11-06T04:13:58;101301.16;;;8.79;98.82
61018;BME280;48171;51.550;5.434;2022-11-06T04:16:37;101302.03;;;8.79;98.57
61018;BME280;48171;51.550;5.434;2022-11-06T04:19:14;101299.41;;;8.79;98.67
61018;BME280;48171;51.550;5.434;2022-11-06T04:22:09;101296.78;;;8.82;98.84
61018;BME280;48171;51.550;5.434;2022-11-06T04:33:26;101280.09;;;8.84;98.67
61018;BME280;48171;51.550;5.434;2022-11-06T04:38:45;101276.53;;;8.75;98.99
61018;BME280;48171;51.550;5.434;2022-11-06T04:41:20;101274.75;;;8.74;99.09
61018;BME280;48171;51.550;5.434;2022-11-06T04:43:57;101265.09;;;8.72;99.11
61018;BME280;48171;51.550;5.434;2022-11-06T04:46:32;101263.31;;;8.69;99.27
61018;BME280;48171;51.550;5.434;2022-11-06T04:49:01;101261.53;;;8.68;99.13
61018;BME280;48171;51.550;5.434;2022-11-06T04:51:34;101272.09;;;8.67;99.31
61018;BME280;48171;51.550;5.434;2022-11-06T04:54:01;101265.03;;;8.64;99.51
61018;BME280;48171;51.550;5.434;2022-11-06T04:56:32;101260.66;;;8.65;99.64
61018;BME280;48171;51.550;5.434;2022-11-06T04:58:58;101264.16;;;8.64;99.64
61018;BME280;48171;51.550;5.434;2022-11-06T05:01:23;101262.38;;;8.61;99.90
61018;BME280;48171;51.550;5.434;2022-11-06T05:03:48;101257.09;;;8.59;100.00
61018;BME280;48171;51.550;5.434;2022-11-06T05:06:14;101250.94;;;8.57;99.98
61018;BME280;48171;51.550;5.434;2022-11-06T05:08:39;101248.31;;;8.57;99.96
61018;BME280;48171;51.550;5.434;2022-11-06T05:11:05;101253.56;;;8.54;100.00
61018;BME280;48171;51.550;5.434;2022-11-06T05:13:30;101255.31;;;8.55;100.00
61018;BME280;48171;51.550;5.434;2022-11-06T05:15:56;101251.81;;;8.55;100.00
61018;BME280;48171;51.550;5.434;2022-11-06T05:18:23;101243.88;;;8.53;100.00
61018;BME280;48171;51.550;5.434;2022-11-06T05:20:49;101239.47;;;8.52;100.00
61018;BME280;48171;51.550;5.434;2022-11-06T05:23:34;101235.06;;;8.50;100.00
61018;BME280;48171;51.550;5.434;2022-11-06T05:25:59;101239.47;;;8.51;100.00
61018;BME280;48171;51.550;5.434;2022-11-06T05:28:24;101242.09;;;8.49;100.00
61018;BME280;48171;51.550;5.434;2022-11-06T05:30:50;101242.09;;;8.49;100.00
61018;BME280;48171;51.550;5.434;2022-11-06T05:33:15;101239.44;;;8.48;100.00
61018;BME280;48171;51.550;5.434;2022-11-06T05:35:40;101237.69;;;8.48;100.00
61018;BME280;48171;51.550;5.434;2022-11-06T05:38:06;101239.44;;;8.48;100.00
61018;BME280;48171;51.550;5.434;2022-11-06T05:40:31;101231.53;;;8.48;100.00
61018;BME280;48171;51.550;5.434;2022-11-06T05:42:56;101230.66;;;8.47;100.00
61018;BME280;48171;51.550;5.434;2022-11-06T05:45:21;101226.25;;;8.46;100.00
61018;BME280;48171;51.550;5.434;2022-11-06T05:47:47;101230.66;;;8.50;100.00
61018;BME280;48171;51.550;5.434;2022-11-06T05:50:12;101229.81;;;8.51;100.00
61018;BME280;48171;51.550;5.434;2022-11-06T05:52:37;101230.69;;;8.52;100.00
61018;BME280;48171;51.550;5.434;2022-11-06T05:55:04;101227.16;;;8.50;100.00
61018;BME280;48171;51.550;5.434;2022-11-06T05:57:30;101227.19;;;8.51;100.00
61018;BME280;48171;51.550;5.434;2022-11-06T05:59:55;101221.91;;;8.50;100.00
61018;BME280;48171;51.550;5.434;2022-11-06T06:02:20;101217.50;;;8.50;100.00
61018;BME280;48171;51.550;5.434;2022-11-06T06:04:46;101197.31;;;8.48;100.00
61018;BME280;48171;51.550;5.434;2022-11-06T06:07:11;101202.56;;;8.48;100.00
61018;BME280;48171;51.550;5.434;2022-11-06T06:09:36;101208.72;;;8.48;100.00
61018;BME280;48171;51.550;5.434;2022-11-06T06:12:02;101218.38;;;8.48;100.00
61018;BME280;48171;51.550;5.434;2022-11-06T06:14:27;101219.25;;;8.48;100.00
61018;BME280;48171;51.550;5.434;2022-11-06T06:16:52;101204.34;;;8.47;100.00
61018;BME280;48171;51.550;5.434;2022-11-06T06:19:18;101207.84;;;8.49;100.00
61018;BME280;48171;51.550;5.434;2022-11-06T06:21:43;101198.19;;;8.50;100.00
61018;BME280;48171;51.550;5.434;2022-11-06T06:24:08;101199.09;;;8.49;100.00
61018;BME280;48171;51.550;5.434;2022-11-06T06:26:34;101192.06;;;8.51;100.00
61018;BME280;48171;51.550;5.434;2022-11-06T06:28:59;101194.69;;;8.52;100.00
61018;BME280;48171;51.550;5.434;2022-11-06T06:31:26;101187.72;;;8.54;100.00
61018;BME280;48171;51.550;5.434;2022-11-06T06:33:51;101194.72;;;8.55;100.00
61018;BME280;48171;51.550;5.434;2022-11-06T06:36:16;101192.13;;;8.57;100.00
61018;BME280;48171;51.550;5.434;2022-11-06T06:38:42;101206.16;;;8.57;100.00
61018;BME280;48171;51.550;5.434;2022-11-06T06:41:07;101208.78;;;8.56;100.00
61018;BME280;48171;51.550;5.434;2022-11-06T06:43:33;101212.31;;;8.58;100.00
61018;BME280;48171;51.550;5.434;2022-11-06T06:46:00;101213.16;;;8.55;100.00
61018;BME280;48171;51.550;5.434;2022-11-06T06:48:26;101215.81;;;8.57;100.00
61018;BME280;48171;51.550;5.434;2022-11-06T06:50:51;101190.34;;;8.53;100.00
61018;BME280;48171;51.550;5.434;2022-11-06T06:53:17;101198.28;;;8.59;100.00
61018;BME280;48171;51.550;5.434;2022-11-06T06:55:42;101193.00;;;8.59;100.00
61018;BME280;48171;51.550;5.434;2022-11-06T06:58:07;101195.66;;;8.60;100.00
61018;BME280;48171;51.550;5.434;2022-11-06T07:00:32;101187.75;;;8.62;100.00
61018;BME280;48171;51.550;5.434;2022-11-06T07:02:58;101189.53;;;8.63;100.00
61018;BME280;48171;51.550;5.434;2022-11-06T07:05:23;101191.31;;;8.67;100.00
61018;BME280;48171;51.550;5.434;2022-11-06T07:07:49;101193.97;;;8.72;100.00
61018;BME280;48171;51.550;5.434;2022-11-06T07:10:14;101192.25;;;8.77;100.00
61018;BME280;48171;51.550;5.434;2022-11-06T07:12:39;101200.16;;;8.85;100.00
61018;BME280;48171;51.550;5.434;2022-11-06T07:15:05;101191.44;;;8.92;100.00
61018;BME280;48171;51.550;5.434;2022-11-06T07:17:31;101185.34;;;8.97;100.00
61018;BME280;48171;51.550;5.434;2022-11-06T07:19:56;101171.28;;;9.01;100.00
61018;BME280;48171;51.550;5.434;2022-11-06T07:22:21;101184.50;;;9.11;100.00
61018;BME280;48171;51.550;5.434;2022-11-06T07:24:50;101190.66;;;9.14;100.00
61018;BME280;48171;51.550;5.434;2022-11-06T07:27:15;101178.38;;;9.16;100.00
61018;BME280;48171;51.550;5.434;2022-11-06T07:29:40;101188.06;;;9.22;100.00
61018;BME280;48171;51.550;5.434;2022-11-06T07:32:07;101188.09;;;9.27;100.00
61018;BME280;48171;51.550;5.434;2022-11-06T07:34:33;101187.22;;;9.31;100.00
61018;BME280;48171;51.550;5.434;2022-11-06T07:36:58;101192.53;;;9.35;100.00
61018;BME280;48171;51.550;5.434;2022-11-06T07:39:23;101189.03;;;9.39;99.90
61018;BME280;48171;51.550;5.434;2022-11-06T07:41:49;101190.78;;;9.40;99.73
61018;BME280;48171;51.550;5.434;2022-11-06T07:44:14;101184.63;;;9.45;98.77
61018;BME280;48171;51.550;5.434;2022-11-06T07:46:39;101179.38;;;9.48;99.58
61018;BME280;48171;51.550;5.434;2022-11-06T07:49:05;101176.75;;;9.52;99.46
61018;BME280;48171;51.550;5.434;2022-11-06T07:51:31;101174.13;;;9.55;99.06
61018;BME280;48171;51.550;5.434;2022-11-06T07:53:56;101176.78;;;9.61;99.06
61018;BME280;48171;51.550;5.434;2022-11-06T07:56:22;101168.84;;;9.63;98.58
61018;BME280;48171;51.550;5.434;2022-11-06T07:58:47;101166.22;;;9.65;98.40
61018;BME280;48171;51.550;5.434;2022-11-06T08:01:16;101154.81;;;9.66;98.46
61018;BME280;48171;51.550;5.434;2022-11-06T08:03:44;101142.47;;;9.65;98.15
61018;BME280;48171;51.550;5.434;2022-11-06T08:06:09;101167.13;;;9.64;97.83
61018;BME280;48171;51.550;5.434;2022-11-06T08:08:35;101163.59;;;9.66;98.18
61018;BME280;48171;51.550;5.434;2022-11-06T08:11:02;101163.59;;;9.66;98.45
61018;BME280;48171;51.550;5.434;2022-11-06T08:13:28;101158.31;;;9.69;98.27
61018;BME280;48171;51.550;5.434;2022-11-06T08:15:53;101153.03;;;9.69;98.07
61018;BME280;48171;51.550;5.434;2022-11-06T08:18:18;101161.84;;;9.74;98.27
61018;BME280;48171;51.550;5.434;2022-11-06T08:20:44;101155.69;;;9.77;98.06
61018;BME280;48171;51.550;5.434;2022-11-06T08:23:10;101159.22;;;9.82;98.54
61018;BME280;48171;51.550;5.434;2022-11-06T08:25:36;101153.94;;;9.87;97.72
61018;BME280;48171;51.550;5.434;2022-11-06T08:28:02;101148.69;;;9.90;97.62
61018;BME280;48171;51.550;5.434;2022-11-06T08:30:28;101142.50;;;9.92;97.74
61018;BME280;48171;51.550;5.434;2022-11-06T08:32:54;101141.63;;;9.93;97.46
61018;BME280;48171;51.550;5.434;2022-11-06T08:35:20;101145.13;;;9.95;97.34
61018;BME280;48171;51.550;5.434;2022-11-06T08:37:46;101129.31;;;9.97;96.91
61018;BME280;48171;51.550;5.434;2022-11-06T08:40:11;101135.47;;;10.04;97.06
61018;BME280;48171;51.550;5.434;2022-11-06T08:42:36;101129.31;;;10.09;96.46
61018;BME280;48171;51.550;5.434;2022-11-06T08:45:03;101124.03;;;10.12;96.57
61018;BME280;48171;51.550;5.434;2022-11-06T08:47:28;101131.94;;;10.17;96.25
61018;BME280;48171;51.550;5.434;2022-11-06T08:49:53;101115.22;;;10.21;96.25
61018;BME280;48171;51.550;5.434;2022-11-06T08:52:20;101114.31;;;10.25;96.05
61018;BME280;48171;51.550;5.434;2022-11-06T08:54:45;101114.34;;;10.27;95.79
61018;BME280;48171;51.550;5.434;2022-11-06T08:57:10;101111.72;;;10.31;95.58
61018;BME280;48171;51.550;5.434;2022-11-06T08:59:36;101116.97;;;10.37;95.99
61018;BME280;48171;51.550;5.434;2022-11-06T09:02:01;101104.66;;;10.43;95.72
61018;BME280;48171;51.550;5.434;2022-11-06T09:04:27;101109.06;;;10.47;94.50
61018;BME280;48171;51.550;5.434;2022-11-06T09:06:52;101101.09;;;10.51;95.61
61018;BME280;48171;51.550;5.434;2022-11-06T09:09:18;101094.94;;;10.54;94.59
61018;BME280;48171;51.550;5.434;2022-11-06T09:11:43;101093.16;;;10.57;94.81
61018;BME280;48171;51.550;5.434;2022-11-06T09:14:08;101091.41;;;10.61;94.01
61018;BME280;48171;51.550;5.434;2022-11-06T09:16:34;101094.91;;;10.65;94.39
61018;BME280;48171;51.550;5.434;2022-11-06T09:18:59;101084.31;;;10.68;94.55
61018;BME280;48171;51.550;5.434;2022-11-06T09:21:24;101073.75;;;10.66;92.81
61018;BME280;48171;51.550;5.434;2022-11-06T09:23:50;101071.09;;;10.71;93.76
61018;BME280;48171;51.550;5.434;2022-11-06T09:26:15;101067.56;;;10.73;93.59
61018;BME280;48171;51.550;5.434;2022-11-06T09:28:41;101063.16;;;10.75;93.16
61018;BME280;48171;51.550;5.434;2022-11-06T09:31:07;101053.41;;;10.82;93.06
61018;BME280;48171;51.550;5.434;2022-11-06T09:33:33;101040.16;;;10.90;92.79
61018;BME280;48171;51.550;5.434;2022-11-06T09:35:58;101042.75;;;11.00;92.53
61018;BME280;48171;51.550;5.434;2022-11-06T09:38:23;101048.88;;;11.10;91.80
61018;BME280;48171;51.550;5.434;2022-11-06T09:40:53;101049.69;;;11.18;92.36
61018;BME280;48171;51.550;5.434;2022-11-06T09:43:46;101050.56;;;11.24;90.71
61018;BME280;48171;51.550;5.434;2022-11-06T09:46:24;101060.22;;;11.25;90.48
61018;BME280;48171;51.550;5.434;2022-11-06T09:48:57;101052.31;;;11.25;89.95
61018;BME280;48171;51.550;5.434;2022-11-06T09:51:31;101052.31;;;11.25;90.51
61018;BME280;48171;51.550;5.434;2022-11-06T09:54:29;101045.22;;;11.31;89.90
61018;BME280;48171;51.550;5.434;2022-11-06T09:57:10;101043.44;;;11.32;89.92
61018;BME280;48171;51.550;5.434;2022-11-06T09:59:38;101033.78;;;11.28;89.23
61018;BME280;48171;51.550;5.434;2022-11-06T10:02:20;101032.00;;;11.31;89.23
61018;BME280;48171;51.550;5.434;2022-11-06T10:04:59;101034.66;;;11.31;89.05
61018;BME280;48171;51.550;5.434;2022-11-06T10:07:29;101025.78;;;11.35;89.61
61018;BME280;48171;51.550;5.434;2022-11-06T10:09:55;101033.69;;;11.37;88.77
61018;BME280;48171;51.550;5.434;2022-11-06T10:15:03;101027.44;;;11.52;89.56
61018;BME280;48171;51.550;5.434;2022-11-06T10:17:39;101030.03;;;11.59;87.79
61018;BME280;48171;51.550;5.434;2022-11-06T10:22:40;101025.53;;;11.66;88.78
61018;BME280;48171;51.550;5.434;2022-11-06T10:25:20;101017.63;;;11.65;86.83
61018;BME280;48171;51.550;5.434;2022-11-06T10:28:01;101021.22;;;11.54;86.63
61018;BME280;48171;51.550;5.434;2022-11-06T10:30:36;101024.78;;;11.52;86.72
61018;BME280;48171;51.550;5.434;2022-11-06T10:33:19;101014.22;;;11.49;87.45
61018;BME280;48171;51.550;5.434;2022-11-06T10:35:53;101011.63;;;11.43;87.38
61018;BME280;48171;51.550;5.434;2022-11-06T10:38:26;101013.38;;;11.44;87.18
61018;BME280;48171;51.550;5.434;2022-11-06T10:40:54;101013.34;;;11.48;88.75
61018;BME280;48171;51.550;5.434;2022-11-06T10:43:41;101008.91;;;11.53;88.18
61018;BME280;48171;51.550;5.434;2022-11-06T10:46:35;101010.59;;;11.60;87.34
61018;BME280;48171;51.550;5.434;2022-11-06T10:49:05;100988.50;;;11.65;87.62
61018;BME280;48171;51.550;5.434;2022-11-06T10:54:49;100982.22;;;11.75;85.29
61018;BME280;48171;51.550;5.434;2022-11-06T10:59:48;100972.50;;;11.78;85.89
61018;BME280;48171;51.550;5.434;2022-11-06T11:02:23;100968.91;;;11.82;86.09
61018;BME280;48171;51.550;5.434;2022-11-06T11:04:50;100955.66;;;11.84;85.46
61018;BME280;48171;51.550;5.434;2022-11-06T11:07:15;100944.16;;;11.87;84.46
61018;BME280;48171;51.550;5.434;2022-11-06T11:09:41;100952.13;;;11.85;84.20
61018;BME280;48171;51.550;5.434;2022-11-06T11:12:22;100947.69;;;11.87;85.19
61018;BME280;48171;51.550;5.434;2022-11-06T11:17:35;100945.94;;;11.86;83.70
61018;BME280;48171;51.550;5.434;2022-11-06T11:20:01;100942.44;;;11.81;82.79
61018;BME280;48171;51.550;5.434;2022-11-06T11:22:26;100951.31;;;11.78;83.68
61018;BME280;48171;51.550;5.434;2022-11-06T11:25:00;100948.66;;;11.77;83.09
61018;BME280;48171;51.550;5.434;2022-11-06T11:27:31;100938.13;;;11.74;82.92
61018;BME280;48171;51.550;5.434;2022-11-06T11:29:57;100930.22;;;11.69;83.77
61018;BME280;48171;51.550;5.434;2022-11-06T11:32:23;100930.22;;;11.69;84.46
61018;BME280;48171;51.550;5.434;2022-11-06T11:34:53;100922.25;;;11.74;83.44
61018;BME280;48171;51.550;5.434;2022-11-06T11:37:27;100914.25;;;11.80;83.76
61018;BME280;48171;51.550;5.434;2022-11-06T11:39:53;100918.59;;;11.86;82.94
61018;BME280;48171;51.550;5.434;2022-11-06T11:42:31;100918.59;;;11.84;81.62
61018;BME280;48171;51.550;5.434;2022-11-06T11:47:40;100906.38;;;11.72;80.30
61018;BME280;48171;51.550;5.434;2022-11-06T11:52:47;100906.50;;;11.61;81.54
61018;BME280;48171;51.550;5.434;2022-11-06T11:55:15;100910.91;;;11.61;82.12
61018;BME280;48171;51.550;5.434;2022-11-06T11:57:43;100904.72;;;11.60;81.48
61018;BME280;48171;51.550;5.434;2022-11-06T12:00:16;100895.94;;;11.60;81.98
61018;BME280;48171;51.550;5.434;2022-11-06T12:02:45;100893.28;;;11.58;80.24
61018;BME280;48171;51.550;5.434;2022-11-06T12:05:13;100888.91;;;11.57;80.40
61018;BME280;48171;51.550;5.434;2022-11-06T12:07:42;100872.16;;;11.55;79.72
61018;BME280;48171;51.550;5.434;2022-11-06T12:10:24;100875.75;;;11.51;79.88
61018;BME280;48171;51.550;5.434;2022-11-06T12:12:51;100862.50;;;11.51;81.09
61018;BME280;48171;51.550;5.434;2022-11-06T12:15:31;100868.69;;;11.50;80.04
61018;BME280;48171;51.550;5.434;2022-11-06T12:18:09;100854.59;;;11.48;80.12
61018;BME280;48171;51.550;5.434;2022-11-06T12:20:44;100856.28;;;11.55;81.24
61018;BME280;48171;51.550;5.434;2022-11-06T12:23:17;100843.06;;;11.54;79.72
61018;BME280;48171;51.550;5.434;2022-11-06T12:28:31;100834.25;;;11.53;79.71
61018;BME280;48171;51.550;5.434;2022-11-06T12:31:03;100838.63;;;11.56;79.65
61018;BME280;48171;51.550;5.434;2022-11-06T12:33:31;100835.94;;;11.59;79.41
61018;BME280;48171;51.550;5.434;2022-11-06T12:36:04;100837.72;;;11.58;79.38
61018;BME280;48171;51.550;5.434;2022-11-06T12:38:40;100835.97;;;11.57;78.83
61018;BME280;48171;51.550;5.434;2022-11-06T12:43:55;100820.13;;;11.53;78.01
61018;BME280;48171;51.550;5.434;2022-11-06T12:46:27;100817.41;;;11.59;78.73
61018;BME280;48171;51.550;5.434;2022-11-06T12:52:16;100831.47;;;11.64;78.57
61018;BME280;48171;51.550;5.434;2022-11-06T13:00:35;100824.41;;;11.63;78.09
61018;BME280;48171;51.550;5.434;2022-11-06T13:06:22;100819.97;;;11.65;76.61
61018;BME280;48171;51.550;5.434;2022-11-06T13:11:36;100834.13;;;11.63;77.02
61018;BME280;48171;51.550;5.434;2022-11-06T13:14:33;100825.41;;;11.56;78.28
61018;BME280;48171;51.550;5.434;2022-11-06T13:20:00;100821.13;;;11.44;77.92
61018;BME280;48171;51.550;5.434;2022-11-06T13:22:38;100815.84;;;11.43;78.33
61018;BME280;48171;51.550;5.434;2022-11-06T13:28:43;100822.09;;;11.35;77.59
61018;BME280;48171;51.550;5.434;2022-11-06T13:30:37;100815.97;;;11.32;78.46
61018;BME280;48171;51.550;5.434;2022-11-06T13:33:18;100818.59;;;11.32;79.37
61018;BME280;48171;51.550;5.434;2022-11-06T13:35:47;100816.88;;;11.28;79.96
61018;BME280;48171;51.550;5.434;2022-11-06T13:38:16;100809.88;;;11.25;79.33
61018;BME280;48171;51.550;5.434;2022-11-06T13:40:47;100811.66;;;11.20;79.56
61018;BME280;48171;51.550;5.434;2022-11-06T13:43:20;100809.09;;;11.12;79.59
61018;BME280;48171;51.550;5.434;2022-11-06T13:51:22;100808.47;;;10.86;83.60
61018;BME280;48171;51.550;5.434;2022-11-06T14:06:58;100817.63;;;10.40;88.43
61018;BME280;48171;51.550;5.434;2022-11-06T14:09:26;100819.47;;;10.30;89.37
61018;BME280;48171;51.550;5.434;2022-11-06T14:12:01;100810.66;;;10.24;90.00
61018;BME280;48171;51.550;5.434;2022-11-06T14:14:30;100803.69;;;10.15;90.47
61018;BME280;48171;51.550;5.434;2022-11-06T14:19:41;100803.75;;;10.02;90.88
61018;BME280;48171;51.550;5.434;2022-11-06T14:22:26;100792.31;;;10.02;91.75
61018;BME280;48171;51.550;5.434;2022-11-06T14:24:52;100787.06;;;9.94;92.35
61018;BME280;48171;51.550;5.434;2022-11-06T14:32:35;100773.94;;;9.77;92.48
61018;BME280;48171;51.550;5.434;2022-11-06T14:40:37;100760.84;;;9.62;92.55
61018;BME280;48171;51.550;5.434;2022-11-06T14:43:18;100742.38;;;9.64;93.02
61018;BME280;48171;51.550;5.434;2022-11-06T14:48:34;100754.69;;;9.58;94.39
61018;BME280;48171;51.550;5.434;2022-11-06T14:51:03;100747.72;;;9.50;94.11
61018;BME280;48171;51.550;5.434;2022-11-06T14:53:38;100750.34;;;9.47;94.70